createdAt,value
2022-09-05T00:00:34.807Z,16.86
2022-09-05T00:01:34.666Z,16.92
2022-09-05T00:02:34.811Z,16.95
2022-09-05T00:03:34.726Z,16.99
2022-09-05T00:04:34.755Z,17.00
2022-09-05T00:05:35.055Z,17.03
2022-09-05T00:06:35.566Z,17.03
2022-09-05T00:07:59.148Z,17.06
2022-09-05T00:08:35.595Z,17.08
2022-09-05T00:09:34.566Z,17.08
2022-09-05T00:10:37.160Z,17.08
2022-09-05T00:11:40.834Z,17.11
2022-09-05T00:12:35.509Z,17.11
2022-09-05T00:13:34.489Z,17.14
2022-09-05T00:15:14.424Z,17.17
2022-09-05T00:15:35.548Z,17.17
2022-09-05T00:16:34.462Z,17.17
2022-09-05T00:18:06.538Z,17.20
2022-09-05T00:24:20.904Z,17.20
2022-09-05T00:24:22.491Z,17.20
2022-09-05T00:24:30.781Z,17.23
2022-09-05T00:24:31.147Z,17.20
2022-09-05T00:24:31.280Z,17.22
2022-09-05T00:24:32.904Z,17.23
2022-09-05T00:24:50.379Z,17.22
2022-09-05T00:25:35.794Z,17.20
2022-09-05T00:26:34.716Z,17.20
2022-09-05T00:27:34.324Z,17.22
2022-09-05T00:28:35.456Z,17.18
2022-09-05T00:31:07.268Z,17.18
2022-09-05T00:31:52.024Z,17.17
2022-09-05T00:31:54.603Z,17.15
2022-09-05T00:32:35.356Z,17.15
2022-09-05T00:33:34.308Z,17.14
2022-09-05T00:34:47.121Z,17.13
2022-09-05T00:35:35.217Z,17.13
2022-09-05T00:36:34.340Z,17.11
2022-09-05T00:37:35.096Z,17.08
2022-09-05T00:38:36.925Z,17.08
2022-09-05T00:39:34.185Z,17.06
2022-09-05T00:40:34.189Z,17.07
2022-09-05T00:41:34.629Z,17.07
2022-09-05T00:42:34.105Z,17.06
2022-09-05T00:43:34.156Z,17.07
2022-09-05T00:44:34.079Z,17.06
2022-09-05T00:45:34.104Z,17.06
2022-09-05T00:46:36.076Z,17.03
2022-09-05T00:47:34.076Z,17.00
2022-09-05T00:48:34.153Z,17.00
2022-09-05T00:49:34.259Z,16.98
2022-09-05T00:50:34.093Z,16.98
2022-09-05T00:51:34.498Z,16.93
2022-09-05T00:52:34.011Z,16.96
2022-09-05T00:53:33.980Z,16.96
2022-09-05T00:54:40.638Z,16.98
2022-09-05T00:55:34.986Z,16.96
2022-09-05T00:56:33.963Z,16.95
2022-09-05T00:57:33.956Z,16.93
2022-09-05T00:58:34.333Z,16.92
2022-09-05T00:59:33.924Z,16.88
2022-09-05T01:00:33.948Z,16.86
2022-09-05T01:01:34.955Z,16.86
2022-09-05T01:02:37.915Z,16.85
2022-09-05T01:03:35.673Z,16.81
2022-09-05T01:04:33.884Z,16.81
2022-09-05T01:05:33.877Z,16.80
2022-09-05T01:06:33.917Z,16.78
2022-09-05T01:07:33.886Z,16.77
2022-09-05T01:08:33.777Z,16.78
2022-09-05T01:09:33.755Z,16.78
2022-09-05T01:10:33.789Z,16.77
2022-09-05T01:11:33.727Z,16.77
2022-09-05T01:12:33.835Z,16.73
2022-09-05T01:13:33.697Z,16.70
2022-09-05T01:14:33.939Z,16.68
2022-09-05T01:15:33.828Z,16.67
2022-09-05T01:16:34.471Z,16.68
2022-09-05T01:17:33.695Z,16.65
2022-09-05T01:18:33.647Z,16.65
2022-09-05T01:19:33.639Z,16.60
2022-09-05T01:20:37.732Z,16.58
2022-09-05T01:21:33.679Z,16.55
2022-09-05T01:22:33.600Z,16.55
2022-09-05T01:23:33.562Z,16.53
2022-09-05T01:24:33.552Z,16.50
2022-09-05T01:25:33.541Z,16.48
2022-09-05T01:26:33.800Z,16.44
2022-09-05T01:27:33.847Z,16.41
2022-09-05T01:29:13.534Z,16.42
2022-09-05T01:29:35.053Z,16.42
2022-09-05T01:30:33.524Z,16.42
2022-09-05T01:31:33.615Z,16.42
2022-09-05T01:32:33.445Z,16.41
2022-09-05T01:33:33.521Z,16.40
2022-09-05T01:34:33.505Z,16.38
2022-09-05T01:35:33.423Z,16.37
2022-09-05T01:36:33.458Z,16.34
2022-09-05T01:37:34.373Z,16.33
2022-09-05T01:38:33.471Z,16.30
2022-09-05T01:40:12.500Z,16.30
2022-09-05T01:40:34.439Z,16.25
2022-09-05T01:41:33.439Z,16.25
2022-09-05T01:42:33.319Z,16.23
2022-09-05T01:43:33.400Z,16.26
2022-09-05T01:44:33.376Z,16.26
2022-09-05T01:45:39.842Z,16.26
2022-09-05T01:46:35.288Z,16.25
2022-09-05T01:47:34.072Z,16.25
2022-09-05T01:48:33.355Z,16.26
2022-09-05T01:49:33.488Z,16.27
2022-09-05T01:50:33.315Z,16.31
2022-09-05T01:51:33.257Z,16.33
2022-09-05T01:52:33.357Z,16.31
2022-09-05T01:53:33.740Z,16.30
2022-09-05T01:54:33.509Z,16.25
2022-09-05T01:55:33.176Z,16.25
2022-09-05T01:56:33.158Z,16.20
2022-09-05T01:57:33.272Z,16.20
2022-09-05T01:58:33.982Z,16.20
2022-09-05T01:59:33.102Z,16.15
2022-09-05T02:00:33.158Z,16.12
2022-09-05T02:01:33.544Z,16.12
2022-09-05T02:02:33.220Z,16.12
2022-09-05T02:03:33.030Z,16.12
2022-09-05T02:04:33.507Z,16.14
2022-09-05T02:05:49.133Z,16.16
2022-09-05T02:06:34.263Z,16.18
2022-09-05T02:07:33.262Z,16.16
2022-09-05T02:08:32.971Z,16.16
2022-09-05T02:09:32.970Z,16.16
2022-09-05T02:10:32.983Z,16.18
2022-09-05T02:11:35.648Z,16.18
2022-09-05T02:12:32.956Z,16.18
2022-09-05T02:13:32.908Z,16.15
2022-09-05T02:14:34.281Z,16.15
2022-09-05T02:15:32.995Z,16.18
2022-09-05T02:16:33.580Z,16.15
2022-09-05T02:17:49.924Z,16.18
2022-09-05T02:18:34.069Z,16.20
2022-09-05T02:19:34.297Z,16.20
2022-09-05T02:20:32.847Z,16.23
2022-09-05T02:21:32.844Z,16.25
2022-09-05T02:22:32.789Z,16.23
2022-09-05T02:23:41.106Z,16.22
2022-09-05T02:24:33.757Z,16.22
2022-09-05T02:26:03.244Z,16.23
2022-09-05T02:26:34.677Z,16.23
2022-09-05T02:28:04.292Z,16.22
2022-09-05T02:28:33.697Z,16.22
2022-09-05T02:29:32.729Z,16.23
2022-09-05T02:30:32.727Z,16.23
2022-09-05T02:31:32.794Z,16.23
2022-09-05T02:32:33.663Z,16.25
2022-09-05T02:33:33.719Z,16.26
2022-09-05T02:34:32.643Z,16.25
2022-09-05T02:35:32.640Z,16.25
2022-09-05T02:36:33.403Z,16.25
2022-09-05T02:38:43.936Z,16.25
2022-09-05T02:41:20.285Z,16.23
2022-09-05T02:45:02.532Z,16.23
2022-09-05T02:45:02.966Z,16.25
2022-09-05T02:45:11.751Z,16.18
2022-09-05T02:45:13.248Z,16.22
2022-09-05T02:45:14.355Z,16.22
2022-09-05T02:45:17.949Z,16.22
2022-09-05T02:45:34.040Z,16.16
2022-09-05T02:46:32.649Z,16.16
2022-09-05T02:47:32.595Z,16.15
2022-09-05T02:48:32.513Z,16.15
2022-09-05T02:51:11.183Z,16.14
2022-09-05T02:55:03.342Z,16.11
2022-09-05T02:57:23.345Z,16.11
2022-09-05T02:57:24.609Z,16.09
2022-09-05T02:57:36.525Z,16.12
2022-09-05T02:57:37.439Z,16.14
2022-09-05T02:57:40.246Z,16.11
2022-09-05T02:58:04.856Z,16.14
2022-09-05T02:58:05.288Z,16.12
2022-09-05T02:58:53.367Z,16.12
2022-09-05T02:59:36.643Z,16.12
2022-09-05T03:00:32.324Z,16.11
2022-09-05T03:01:32.372Z,16.12
2022-09-05T03:02:32.408Z,16.14
2022-09-05T03:03:32.297Z,16.15
2022-09-05T03:04:32.253Z,16.18
2022-09-05T03:05:32.222Z,16.16
2022-09-05T03:06:35.010Z,16.15
2022-09-05T03:07:32.192Z,16.14
2022-09-05T03:08:32.264Z,16.12
2022-09-05T03:09:32.173Z,16.14
2022-09-05T03:10:54.612Z,16.20
2022-09-05T03:11:33.200Z,16.20
2022-09-05T03:12:32.137Z,16.18
2022-09-05T03:13:32.138Z,16.16
2022-09-05T03:14:32.099Z,16.20
2022-09-05T03:15:32.074Z,16.26
2022-09-05T03:16:33.181Z,16.23
2022-09-05T03:17:33.058Z,16.23
2022-09-05T03:18:32.383Z,16.26
2022-09-05T03:19:32.222Z,16.27
2022-09-05T03:20:33.280Z,16.26
2022-09-05T03:21:32.027Z,16.26
2022-09-05T03:22:36.726Z,16.27
2022-09-05T03:23:33.201Z,16.26
2022-09-05T03:24:32.147Z,16.25
2022-09-05T03:25:31.955Z,16.25
2022-09-05T03:26:32.020Z,16.27
2022-09-05T03:27:31.956Z,16.30
2022-09-05T03:28:32.073Z,16.38
2022-09-05T03:29:31.935Z,16.40
2022-09-05T03:30:31.914Z,16.40
2022-09-05T03:31:31.969Z,16.35
2022-09-05T03:32:31.940Z,16.34
2022-09-05T03:33:31.874Z,16.33
2022-09-05T03:34:33.307Z,16.30
2022-09-05T03:35:32.439Z,16.31
2022-09-05T03:36:32.768Z,16.27
2022-09-05T03:37:32.671Z,16.33
2022-09-05T03:38:31.882Z,16.33
2022-09-05T03:39:31.832Z,16.30
2022-09-05T03:40:31.865Z,16.27
2022-09-05T03:41:36.743Z,16.26
2022-09-05T03:42:32.847Z,16.25
2022-09-05T03:43:31.732Z,16.27
2022-09-05T03:44:32.514Z,16.30
2022-09-05T03:45:40.986Z,16.31
2022-09-05T03:46:32.709Z,16.31
2022-09-05T03:47:31.740Z,16.34
2022-09-05T03:48:31.717Z,16.35
2022-09-05T03:52:21.393Z,16.35
2022-09-05T03:54:02.899Z,16.35
2022-09-05T03:57:06.709Z,16.35
2022-09-05T03:57:10.997Z,16.31
2022-09-05T03:57:11.774Z,16.35
2022-09-05T03:57:15.050Z,16.31
2022-09-05T03:57:27.637Z,16.30
2022-09-05T03:57:28.226Z,16.33
2022-09-05T03:57:41.725Z,16.33
2022-09-05T03:59:01.662Z,16.34
2022-09-05T03:59:32.525Z,16.41
2022-09-05T04:00:31.485Z,16.44
2022-09-05T04:02:49.229Z,16.45
2022-09-05T04:07:40.118Z,16.49
2022-09-05T04:08:07.558Z,16.49
2022-09-05T04:08:17.764Z,16.50
2022-09-05T04:08:20.632Z,16.49
2022-09-05T04:08:26.111Z,16.49
2022-09-05T04:08:26.398Z,16.49
2022-09-05T04:08:38.663Z,16.49
2022-09-05T04:09:50.065Z,16.49
2022-09-05T04:10:32.491Z,16.48
2022-09-05T04:11:31.358Z,16.45
2022-09-05T04:12:31.461Z,16.45
2022-09-05T04:13:32.280Z,16.48
2022-09-05T04:14:31.357Z,16.45
2022-09-05T04:15:31.426Z,16.45
2022-09-05T04:16:32.536Z,16.50
2022-09-05T04:17:31.342Z,16.53
2022-09-05T04:18:33.916Z,16.53
2022-09-05T04:19:31.261Z,16.53
2022-09-05T04:20:31.266Z,16.56
2022-09-05T04:21:31.225Z,16.56
2022-09-05T04:22:31.254Z,16.56
2022-09-05T04:23:31.261Z,16.52
2022-09-05T04:24:31.174Z,16.49
2022-09-05T04:25:31.202Z,16.50
2022-09-05T04:26:32.615Z,16.48
2022-09-05T04:27:31.447Z,16.44
2022-09-05T04:28:31.153Z,16.44
2022-09-05T04:29:31.124Z,16.41
2022-09-05T04:30:39.651Z,16.41
2022-09-05T04:31:32.191Z,16.41
2022-09-05T04:32:31.189Z,16.42
2022-09-05T04:33:36.651Z,16.42
2022-09-05T04:34:32.076Z,16.42
2022-09-05T04:35:31.050Z,16.42
2022-09-05T04:36:32.489Z,16.38
2022-09-05T04:37:32.059Z,16.37
2022-09-05T04:38:32.405Z,16.34
2022-09-05T04:39:31.866Z,16.30
2022-09-05T04:40:33.136Z,16.31
2022-09-05T04:41:39.899Z,16.35
2022-09-05T04:42:32.185Z,16.35
2022-09-05T04:43:30.995Z,16.35
2022-09-05T04:44:32.356Z,16.33
2022-09-05T04:45:31.822Z,16.31
2022-09-05T04:46:31.714Z,16.30
2022-09-05T04:47:31.887Z,16.31
2022-09-05T04:48:32.000Z,16.27
2022-09-05T04:49:31.899Z,16.26
2022-09-05T04:50:37.679Z,16.30
2022-09-05T04:51:31.956Z,16.40
2022-09-05T04:52:31.973Z,16.41
2022-09-05T04:53:32.031Z,16.42
2022-09-05T04:54:31.932Z,16.45
2022-09-05T04:55:31.838Z,16.44
2022-09-05T04:56:30.784Z,16.42
2022-09-05T04:57:31.459Z,16.42
2022-09-05T04:59:14.525Z,16.41
2022-09-05T05:01:37.929Z,16.40
2022-09-05T05:06:00.735Z,16.40
2022-09-05T05:06:02.872Z,16.40
2022-09-05T05:06:03.644Z,16.38
2022-09-05T05:06:10.314Z,16.41
2022-09-05T05:06:11.540Z,16.41
2022-09-05T05:06:14.276Z,16.41
2022-09-05T05:06:44.969Z,16.42
2022-09-05T05:07:31.927Z,16.41
2022-09-05T05:08:38.207Z,16.42
2022-09-05T05:09:31.604Z,16.42
2022-09-05T05:14:47.157Z,16.42
2022-09-05T05:16:39.793Z,16.42
2022-09-05T05:17:56.908Z,16.45
2022-09-05T05:18:02.673Z,16.45
2022-09-05T05:18:07.040Z,16.45
2022-09-05T05:18:07.631Z,16.44
2022-09-05T05:18:08.631Z,16.45
2022-09-05T05:18:10.726Z,16.44
2022-09-05T05:18:42.258Z,16.44
2022-09-05T05:19:31.785Z,16.45
2022-09-05T05:20:40.766Z,16.44
2022-09-05T05:21:31.730Z,16.44
2022-09-05T05:22:30.596Z,16.45
2022-09-05T05:23:30.998Z,16.48
2022-09-05T05:24:31.920Z,16.48
2022-09-05T05:25:30.411Z,16.50
2022-09-05T05:26:30.711Z,16.50
2022-09-05T05:27:30.440Z,16.52
2022-09-05T05:28:30.331Z,16.50
2022-09-05T05:29:30.347Z,16.52
2022-09-05T05:30:31.713Z,16.55
2022-09-05T05:31:30.496Z,16.53
2022-09-05T05:32:44.712Z,16.53
2022-09-05T05:33:31.340Z,16.53
2022-09-05T05:34:30.476Z,16.55
2022-09-05T05:35:31.068Z,16.56
2022-09-05T05:36:30.285Z,16.56
2022-09-05T05:37:32.166Z,16.56
2022-09-05T05:38:30.211Z,16.56
2022-09-05T05:39:31.248Z,16.55
2022-09-05T05:40:31.631Z,16.56
2022-09-05T05:41:31.344Z,16.55
2022-09-05T05:42:30.201Z,16.56
2022-09-05T05:43:30.149Z,16.56
2022-09-05T05:44:31.226Z,16.56
2022-09-05T05:45:30.136Z,16.56
2022-09-05T05:46:30.203Z,16.56
2022-09-05T05:47:32.190Z,16.55
2022-09-05T05:48:30.576Z,16.55
2022-09-05T05:49:30.087Z,16.56
2022-09-05T05:50:30.058Z,16.58
2022-09-05T05:51:44.078Z,16.59
2022-09-05T05:52:31.088Z,16.62
2022-09-05T05:53:42.615Z,16.65
2022-09-05T05:54:31.591Z,16.67
2022-09-05T05:55:51.633Z,16.71
2022-09-05T05:56:31.035Z,16.74
2022-09-05T05:57:30.119Z,16.75
2022-09-05T05:58:32.613Z,16.78
2022-09-05T05:59:30.813Z,16.81
2022-09-05T06:00:29.950Z,16.83
2022-09-05T06:01:38.100Z,16.86
2022-09-05T06:02:32.741Z,16.89
2022-09-05T06:03:31.016Z,16.93
2022-09-05T06:04:29.944Z,16.96
2022-09-05T06:05:30.744Z,16.99
2022-09-05T06:06:29.844Z,17.04
2022-09-05T06:07:30.428Z,17.08
2022-09-05T06:11:02.305Z,17.15
2022-09-05T06:11:04.616Z,17.14
2022-09-05T06:14:48.507Z,17.20
2022-09-05T06:14:50.210Z,17.25
2022-09-05T06:14:55.863Z,17.23
2022-09-05T06:14:57.750Z,17.26
2022-09-05T06:15:09.199Z,17.26
2022-09-05T06:15:33.500Z,17.33
2022-09-05T06:16:30.772Z,17.36
2022-09-05T06:17:29.713Z,17.40
2022-09-05T06:18:29.685Z,17.44
2022-09-05T06:19:43.621Z,17.46
2022-09-05T06:22:04.257Z,17.50
2022-09-05T06:22:11.031Z,17.55
2022-09-05T06:22:30.722Z,17.63
2022-09-05T06:23:39.083Z,17.64
2022-09-05T06:24:31.596Z,17.66
2022-09-05T06:25:30.367Z,17.69
2022-09-05T06:26:29.586Z,17.71
2022-09-05T06:27:29.600Z,17.76
2022-09-05T06:28:29.580Z,17.84
2022-09-05T06:29:34.530Z,17.89
2022-09-05T06:30:31.208Z,17.97
2022-09-05T06:31:31.798Z,18.03
2022-09-05T06:32:30.678Z,18.03
2022-09-05T06:33:30.093Z,18.09
2022-09-05T06:34:35.059Z,18.12
2022-09-05T06:35:31.310Z,18.17
2022-09-05T06:36:30.448Z,18.25
2022-09-05T06:37:29.667Z,18.29
2022-09-05T06:38:29.457Z,18.34
2022-09-05T06:39:29.446Z,18.37
2022-09-05T06:40:32.175Z,18.40
2022-09-05T06:41:30.121Z,18.44
2022-09-05T06:42:42.812Z,18.52
2022-09-05T06:43:30.376Z,18.59
2022-09-05T06:44:30.034Z,18.59
2022-09-05T06:45:30.492Z,18.61
2022-09-05T06:46:54.704Z,18.62
2022-09-05T06:47:34.439Z,18.65
2022-09-05T06:48:46.093Z,18.72
2022-09-05T06:49:37.458Z,18.77
2022-09-05T06:50:30.271Z,18.83
2022-09-05T06:51:30.466Z,18.87
2022-09-05T06:52:30.283Z,18.95
2022-09-05T06:53:29.196Z,19.05
2022-09-05T06:54:30.142Z,19.08
2022-09-05T06:55:30.048Z,19.13
2022-09-05T06:56:29.392Z,19.17
2022-09-05T06:57:29.329Z,19.24
2022-09-05T06:58:29.171Z,19.28
2022-09-05T06:59:30.178Z,19.29
2022-09-05T07:00:29.339Z,19.25
2022-09-05T07:01:59.699Z,19.29
2022-09-05T07:02:58.678Z,19.29
2022-09-05T07:03:30.411Z,19.17
2022-09-05T07:04:33.365Z,19.15
2022-09-05T07:05:39.540Z,19.20
2022-09-05T07:07:01.945Z,19.21
2022-09-05T07:07:30.304Z,19.23
2022-09-05T07:08:36.435Z,19.28
2022-09-05T07:09:30.060Z,19.31
2022-09-05T07:10:38.398Z,19.33
2022-09-05T07:11:30.100Z,19.39
2022-09-05T07:12:30.383Z,19.51
2022-09-05T07:13:29.049Z,19.57
2022-09-05T07:14:29.752Z,19.66
2022-09-05T07:15:29.113Z,19.68
2022-09-05T07:16:37.258Z,19.73
2022-09-05T07:17:30.390Z,19.80
2022-09-05T07:18:29.131Z,19.84
2022-09-05T07:19:28.998Z,19.87
2022-09-05T07:20:28.929Z,19.94
2022-09-05T07:21:28.964Z,19.98
2022-09-05T07:22:46.649Z,20.05
2022-09-05T07:24:05.923Z,20.13
2022-09-05T07:24:53.652Z,20.18
2022-09-05T07:25:33.200Z,20.33
2022-09-05T07:26:52.491Z,20.31
2022-09-05T07:27:30.552Z,20.42
2022-09-05T07:28:30.486Z,20.51
2022-09-05T07:29:29.919Z,20.54
2022-09-05T07:30:30.175Z,20.61
2022-09-05T07:31:37.653Z,20.50
2022-09-05T07:32:30.598Z,20.54
2022-09-05T07:33:29.004Z,20.54
2022-09-05T07:34:28.686Z,20.61
2022-09-05T07:35:31.228Z,20.65
2022-09-05T07:36:29.668Z,20.72
2022-09-05T07:37:28.668Z,20.80
2022-09-05T07:38:52.189Z,20.79
2022-09-05T07:39:29.761Z,20.74
2022-09-05T07:40:28.755Z,20.74
2022-09-05T07:41:28.783Z,20.71
2022-09-05T07:42:29.632Z,20.71
2022-09-05T07:43:28.643Z,20.74
2022-09-05T07:44:29.435Z,20.66
2022-09-05T07:45:29.365Z,20.66
2022-09-05T07:46:30.481Z,20.59
2022-09-05T07:47:28.502Z,20.50
2022-09-05T07:48:35.202Z,20.49
2022-09-05T07:49:31.159Z,20.59
2022-09-05T07:53:55.087Z,20.64
2022-09-05T07:56:32.090Z,20.68
2022-09-05T07:56:51.465Z,20.76
2022-09-05T07:56:54.203Z,20.83
2022-09-05T07:56:59.648Z,21.06
2022-09-05T07:57:02.494Z,20.89
2022-09-05T07:57:09.203Z,20.98
2022-09-05T07:57:31.665Z,21.20
2022-09-05T07:58:28.548Z,21.24
2022-09-05T07:59:28.366Z,21.32
2022-09-05T08:00:29.819Z,21.39
2022-09-05T08:01:28.368Z,21.42
2022-09-05T08:02:28.408Z,21.50
2022-09-05T08:03:29.165Z,21.54
2022-09-05T08:04:28.328Z,21.61
2022-09-05T08:05:34.985Z,21.57
2022-09-05T08:07:46.094Z,21.60
2022-09-05T08:07:46.988Z,21.66
2022-09-05T08:08:30.208Z,21.71
2022-09-05T08:10:06.010Z,21.81
2022-09-05T08:10:31.115Z,21.88
2022-09-05T08:11:29.189Z,21.94
2022-09-05T08:12:28.402Z,21.79
2022-09-05T08:13:28.288Z,21.78
2022-09-05T08:14:44.755Z,21.78
2022-09-05T08:15:39.690Z,21.76
2022-09-05T08:16:30.658Z,21.71
2022-09-05T08:17:30.196Z,21.61
2022-09-05T08:18:28.103Z,21.63
2022-09-05T08:19:28.466Z,21.64
2022-09-05T08:20:28.073Z,21.74
2022-09-05T08:21:28.178Z,21.69
2022-09-05T08:22:28.114Z,21.72
2022-09-05T08:23:28.030Z,21.74
2022-09-05T08:24:28.035Z,21.71
2022-09-05T08:25:36.434Z,21.81
2022-09-05T08:26:28.983Z,21.75
2022-09-05T08:27:28.103Z,21.81
2022-09-05T08:28:39.407Z,21.82
2022-09-05T08:29:30.539Z,21.83
2022-09-05T08:30:28.231Z,21.88
2022-09-05T08:31:28.141Z,21.95
2022-09-05T08:32:32.182Z,22.07
2022-09-05T08:33:28.927Z,22.17
2022-09-05T08:34:31.500Z,22.27
2022-09-05T08:35:28.918Z,22.29
2022-09-05T08:36:29.048Z,22.29
2022-09-05T08:37:28.387Z,22.35
2022-09-05T08:38:27.848Z,22.43
2022-09-05T08:39:28.899Z,22.52
2022-09-05T08:40:27.927Z,22.56
2022-09-05T08:41:51.360Z,22.62
2022-09-05T08:42:28.871Z,22.64
2022-09-05T08:45:58.662Z,22.64
2022-09-05T08:46:40.080Z,22.54
2022-09-05T08:46:40.347Z,22.59
2022-09-05T08:46:46.141Z,22.47
2022-09-05T08:47:28.763Z,22.44
2022-09-05T08:48:28.952Z,22.37
2022-09-05T08:49:36.906Z,22.46
2022-09-05T08:50:28.751Z,22.56
2022-09-05T08:51:28.633Z,22.72
2022-09-05T08:52:28.532Z,22.77
2022-09-05T08:53:46.293Z,22.75
2022-09-05T08:54:29.759Z,22.86
2022-09-05T08:55:27.646Z,22.97
2022-09-05T08:56:27.615Z,23.01
2022-09-05T08:57:28.570Z,23.02
2022-09-05T08:58:27.619Z,23.15
2022-09-05T08:59:31.951Z,23.05
2022-09-05T09:00:31.402Z,23.12
2022-09-05T09:01:27.615Z,23.20
2022-09-05T09:02:46.828Z,23.26
2022-09-05T09:03:30.000Z,23.38
2022-09-05T09:05:01.018Z,23.45
2022-09-05T09:05:48.939Z,23.53
2022-09-05T09:06:28.472Z,23.64
2022-09-05T09:07:47.419Z,23.72
2022-09-05T09:08:28.553Z,23.70
2022-09-05T09:09:27.470Z,23.76
2022-09-05T09:10:28.351Z,23.80
2022-09-05T09:11:27.511Z,23.72
2022-09-05T09:12:27.397Z,23.72
2022-09-05T09:13:27.378Z,23.76
2022-09-05T09:14:30.959Z,23.79
2022-09-05T09:15:27.610Z,23.87
2022-09-05T09:17:28.922Z,23.85
2022-09-05T09:18:39.800Z,23.86
2022-09-05T09:19:29.189Z,24.01
2022-09-05T09:20:29.101Z,24.04
2022-09-05T09:21:28.825Z,24.05
2022-09-05T09:22:32.698Z,24.08
2022-09-05T09:23:31.706Z,24.08
2022-09-05T09:24:28.885Z,24.05
2022-09-05T09:25:30.727Z,24.07
2022-09-05T09:26:30.905Z,24.07
2022-09-05T09:27:34.309Z,24.20
2022-09-05T09:28:48.391Z,24.37
2022-09-05T09:29:30.612Z,24.44
2022-09-05T09:30:28.667Z,24.50
2022-09-05T09:31:29.952Z,24.52
2022-09-05T09:32:28.783Z,24.52
2022-09-05T09:33:28.622Z,24.41
2022-09-05T09:34:28.638Z,24.31
2022-09-05T09:35:28.610Z,24.01
2022-09-05T09:36:29.438Z,23.98
2022-09-05T09:37:35.616Z,24.04
2022-09-05T09:38:29.543Z,24.20
2022-09-05T09:39:38.432Z,24.29
2022-09-05T09:40:29.577Z,24.38
2022-09-05T09:41:28.970Z,24.44
2022-09-05T09:42:33.726Z,24.47
2022-09-05T09:43:29.577Z,24.41
2022-09-05T09:44:28.597Z,24.34
2022-09-05T09:45:29.788Z,24.27
2022-09-05T09:46:28.536Z,24.31
2022-09-05T09:47:28.448Z,24.32
2022-09-05T09:48:28.420Z,24.41
2022-09-05T09:49:28.583Z,24.50
2022-09-05T09:50:28.552Z,24.49
2022-09-05T09:51:29.252Z,24.52
2022-09-05T09:52:28.493Z,24.45
2022-09-05T09:53:28.392Z,24.44
2022-09-05T09:54:28.404Z,24.41
2022-09-05T09:55:28.623Z,24.49
2022-09-05T09:56:28.357Z,24.45
2022-09-05T09:57:28.296Z,24.50
2022-09-05T09:58:29.343Z,24.53
2022-09-05T09:59:28.384Z,24.61
2022-09-05T10:00:28.266Z,24.59
2022-09-05T10:01:36.497Z,24.68
2022-09-05T10:03:47.068Z,24.73
2022-09-05T10:06:20.112Z,24.73
2022-09-05T10:10:39.690Z,24.90
2022-09-05T10:10:39.789Z,24.79
2022-09-05T10:10:40.258Z,24.73
2022-09-05T10:10:44.179Z,24.82
2022-09-05T10:10:49.591Z,24.85
2022-09-05T10:10:53.992Z,24.87
2022-09-05T10:10:57.451Z,24.83
2022-09-05T10:12:29.124Z,24.91
2022-09-05T10:13:28.069Z,24.95
2022-09-05T10:14:47.706Z,25.05
2022-09-05T10:15:32.476Z,25.12
2022-09-05T10:16:28.230Z,25.12
2022-09-05T10:17:28.011Z,25.19
2022-09-05T10:18:31.426Z,25.32
2022-09-05T10:20:29.839Z,25.39
2022-09-05T10:21:27.985Z,25.37
2022-09-05T10:22:37.142Z,25.35
2022-09-05T10:23:30.049Z,25.35
2022-09-05T10:24:27.972Z,25.39
2022-09-05T10:25:28.862Z,25.46
2022-09-05T10:26:28.736Z,25.42
2022-09-05T10:27:28.009Z,25.35
2022-09-05T10:28:28.043Z,25.32
2022-09-05T10:29:37.567Z,25.30
2022-09-05T10:31:10.017Z,25.20
2022-09-05T10:32:14.973Z,25.13
2022-09-05T10:35:08.404Z,25.17
2022-09-05T10:35:14.307Z,25.28
2022-09-05T10:35:18.357Z,25.20
2022-09-05T10:35:29.289Z,25.32
2022-09-05T10:36:29.423Z,25.38
2022-09-05T10:37:27.980Z,25.46
2022-09-05T10:38:28.329Z,25.43
2022-09-05T10:39:28.645Z,25.38
2022-09-05T10:40:27.865Z,25.28
2022-09-05T10:41:27.775Z,25.28
2022-09-05T10:42:27.808Z,25.34
2022-09-05T10:43:27.741Z,25.42
2022-09-05T10:44:28.148Z,25.43
2022-09-05T10:45:34.314Z,25.42
2022-09-05T10:46:49.581Z,25.39
2022-09-05T10:47:28.836Z,25.32
2022-09-05T10:48:27.975Z,25.38
2022-09-05T10:49:30.197Z,25.42
2022-09-05T10:50:28.473Z,25.44
2022-09-05T10:51:28.353Z,25.47
2022-09-05T10:52:27.599Z,25.56
2022-09-05T10:53:28.455Z,25.61
2022-09-05T10:54:28.547Z,25.69
2022-09-05T10:55:27.567Z,25.74
2022-09-05T10:56:28.723Z,25.77
2022-09-05T10:57:27.590Z,25.79
2022-09-05T10:59:31.790Z,25.83
2022-09-05T11:02:19.198Z,25.90
2022-09-05T11:02:24.629Z,25.84
2022-09-05T11:02:28.222Z,25.97
2022-09-05T11:02:36.709Z,25.98
2022-09-05T11:03:28.823Z,26.04
2022-09-05T11:04:27.448Z,26.04
2022-09-05T11:05:27.536Z,26.06
2022-09-05T11:06:27.453Z,26.05
2022-09-05T11:07:29.794Z,26.02
2022-09-05T11:08:27.369Z,25.93
2022-09-05T11:09:28.829Z,25.80
2022-09-05T11:10:27.373Z,25.72
2022-09-05T11:11:34.081Z,25.75
2022-09-05T11:12:28.349Z,25.82
2022-09-05T11:13:27.456Z,25.80
2022-09-05T11:14:28.218Z,25.90
2022-09-05T11:15:28.118Z,25.89
2022-09-05T11:16:27.341Z,25.93
2022-09-05T11:17:27.315Z,25.97
2022-09-05T11:18:30.375Z,25.99
2022-09-05T11:19:28.314Z,26.02
2022-09-05T11:20:35.092Z,26.02
2022-09-05T11:21:28.309Z,26.04
2022-09-05T11:22:27.259Z,26.06
2022-09-05T11:23:28.378Z,26.09
2022-09-05T11:24:27.722Z,26.11
2022-09-05T11:25:39.755Z,26.12
2022-09-05T11:26:28.190Z,26.05
2022-09-05T11:27:29.083Z,26.08
2022-09-05T11:28:27.168Z,26.12
2022-09-05T11:29:27.134Z,26.24
2022-09-05T11:30:28.649Z,26.28
2022-09-05T11:31:27.171Z,26.32
2022-09-05T11:34:35.591Z,26.37
2022-09-05T11:36:20.253Z,26.44
2022-09-05T11:39:47.542Z,26.40
2022-09-05T11:39:48.936Z,26.40
2022-09-05T11:40:02.337Z,26.42
2022-09-05T11:40:03.624Z,26.39
2022-09-05T11:40:07.456Z,26.31
2022-09-05T11:40:10.856Z,26.36
2022-09-05T11:40:41.928Z,26.31
2022-09-05T11:41:28.804Z,26.35
2022-09-05T11:42:27.264Z,26.35
2022-09-05T11:43:26.920Z,26.32
2022-09-05T11:44:27.481Z,26.37
2022-09-05T11:45:26.989Z,26.40
2022-09-05T11:46:37.031Z,26.52
2022-09-05T11:47:33.168Z,26.59
2022-09-05T11:48:27.894Z,26.62
2022-09-05T11:49:27.928Z,26.61
2022-09-05T11:50:27.151Z,26.61
2022-09-05T11:51:33.514Z,26.62
2022-09-05T11:52:27.834Z,26.61
2022-09-05T11:53:26.792Z,26.61
2022-09-05T11:54:27.787Z,26.58
2022-09-05T11:55:26.779Z,26.50
2022-09-05T11:56:28.789Z,26.47
2022-09-05T11:57:33.533Z,26.43
2022-09-05T11:58:45.284Z,26.31
2022-09-05T11:59:33.488Z,26.27
2022-09-05T12:00:31.759Z,26.35
2022-09-05T12:01:41.312Z,26.29
2022-09-05T12:02:27.991Z,26.28
2022-09-05T12:03:41.383Z,26.46
2022-09-05T12:04:29.655Z,26.55
2022-09-05T12:05:49.606Z,26.65
2022-09-05T12:06:27.701Z,26.77
2022-09-05T12:07:31.789Z,26.79
2022-09-05T12:08:28.813Z,26.67
2022-09-05T12:09:27.541Z,26.61
2022-09-05T12:10:46.675Z,26.58
2022-09-05T12:11:27.601Z,26.57
2022-09-05T12:12:41.767Z,26.65
2022-09-05T12:13:29.245Z,26.62
2022-09-05T12:14:26.661Z,26.72
2022-09-05T12:15:26.666Z,26.80
2022-09-05T12:17:34.711Z,26.94
2022-09-05T12:18:28.871Z,26.95
2022-09-05T12:19:26.481Z,26.96
2022-09-05T12:20:26.563Z,26.99
2022-09-05T12:21:26.478Z,26.98
2022-09-05T12:22:26.452Z,26.95
2022-09-05T12:24:02.345Z,26.95
2022-09-05T12:25:24.299Z,26.95
2022-09-05T12:27:35.651Z,26.96
2022-09-05T12:27:40.715Z,26.94
2022-09-05T12:27:41.629Z,26.92
2022-09-05T12:29:26.403Z,26.91
2022-09-05T12:29:37.377Z,26.86
2022-09-05T12:32:36.532Z,26.89
2022-09-05T12:35:19.783Z,26.94
2022-09-05T12:36:05.574Z,26.87
2022-09-05T12:36:06.439Z,26.92
2022-09-05T12:36:13.204Z,26.89
2022-09-05T12:40:32.596Z,26.83
2022-09-05T12:40:53.994Z,26.98
2022-09-05T12:40:57.495Z,26.89
2022-09-05T12:41:36.124Z,26.96
2022-09-05T12:41:38.507Z,27.04
2022-09-05T12:41:44.798Z,27.10
2022-09-05T12:42:09.960Z,26.84
2022-09-05T12:42:10.952Z,26.91
2022-09-05T12:42:37.236Z,27.10
2022-09-05T12:44:36.521Z,27.14
2022-09-05T12:44:41.304Z,27.10
2022-09-05T12:45:37.361Z,27.10
2022-09-05T12:46:28.084Z,27.11
2022-09-05T12:47:26.142Z,27.11
2022-09-05T12:48:26.293Z,27.06
2022-09-05T12:49:28.585Z,27.11
2022-09-05T12:50:27.062Z,27.28
2022-09-05T12:51:46.639Z,27.32
2022-09-05T12:52:28.043Z,27.21
2022-09-05T12:53:26.903Z,27.14
2022-09-05T12:54:33.697Z,27.24
2022-09-05T12:55:27.252Z,27.35